Terminal Aerodrome Forecast
Issued by NWS

Home | Current Version | Previous Version | Text Only | Print | Product List | Glossary On
Versions: 1 2 3 4 5 6 7 8 9 10 11 12 13 14 15 16 17
433
FTUS46 KSTO 081136
TAFSCK
TAF
KSCK 081136Z 0812/0912 VRB03KT 6SM BR SKC
      TEMPO 0814/0817 3SM BR
     FM081800 30006KT P6SM SKC=

USA.gov is the U.S. government's official web portal to all federal, state and local government web resources and services.